sensor_id;sensor_type;location;lat;lon;timestamp;temperature;humidity
57390;DHT22;43217;52.694;6.214;2023-04-25T00:01:15;6.90;99.90
57390;DHT22;43217;52.694;6.214;2023-04-25T00:03:40;6.80;99.90
57390;DHT22;43217;52.694;6.214;2023-04-25T00:06:06;6.80;99.90
57390;DHT22;43217;52.694;6.214;2023-04-25T00:08:32;6.70;99.90
57390;DHT22;43217;52.694;6.214;2023-04-25T00:10:59;6.70;99.90
57390;DHT22;43217;52.694;6.214;2023-04-25T00:13:25;6.60;99.90
57390;DHT22;43217;52.694;6.214;2023-04-25T00:15:51;6.60;99.90
57390;DHT22;43217;52.694;6.214;2023-04-25T00:18:19;6.60;99.90
57390;DHT22;43217;52.694;6.214;2023-04-25T00:20:45;6.60;99.90
57390;DHT22;43217;52.694;6.214;2023-04-25T00:23:16;6.50;99.90
57390;DHT22;43217;52.694;6.214;2023-04-25T00:25:52;6.50;99.90
57390;DHT22;43217;52.694;6.214;2023-04-25T00:28:18;6.50;99.90
57390;DHT22;43217;52.694;6.214;2023-04-25T00:30:43;6.50;99.90
57390;DHT22;43217;52.694;6.214;2023-04-25T00:33:09;6.40;99.90
57390;DHT22;43217;52.694;6.214;2023-04-25T00:35:35;6.40;99.90
57390;DHT22;43217;52.694;6.214;2023-04-25T00:38:01;6.40;99.90
57390;DHT22;43217;52.694;6.214;2023-04-25T00:40:27;6.40;99.90
57390;DHT22;43217;52.694;6.214;2023-04-25T00:42:53;6.30;99.90
57390;DHT22;43217;52.694;6.214;2023-04-25T00:45:19;6.40;99.90
57390;DHT22;43217;52.694;6.214;2023-04-25T00:47:45;6.40;99.90
57390;DHT22;43217;52.694;6.214;2023-04-25T00:50:12;6.30;99.90
57390;DHT22;43217;52.694;6.214;2023-04-25T00:52:43;6.30;99.90
57390;DHT22;43217;52.694;6.214;2023-04-25T00:55:10;6.40;99.90
57390;DHT22;43217;52.694;6.214;2023-04-25T00:57:36;6.40;99.90
57390;DHT22;43217;52.694;6.214;2023-04-25T01:00:04;6.40;99.90
57390;DHT22;43217;52.694;6.214;2023-04-25T01:02:32;6.40;99.90
57390;DHT22;43217;52.694;6.214;2023-04-25T01:04:58;6.40;99.90
57390;DHT22;43217;52.694;6.214;2023-04-25T01:07:24;6.40;99.90
57390;DHT22;43217;52.694;6.214;2023-04-25T01:09:51;6.30;99.90
57390;DHT22;43217;52.694;6.214;2023-04-25T01:12:17;6.30;99.90
57390;DHT22;43217;52.694;6.214;2023-04-25T01:14:43;6.30;99.90
57390;DHT22;43217;52.694;6.214;2023-04-25T01:17:09;6.30;99.90
57390;DHT22;43217;52.694;6.214;2023-04-25T01:19:35;6.30;99.90
57390;DHT22;43217;52.694;6.214;2023-04-25T01:22:01;6.40;99.90
57390;DHT22;43217;52.694;6.214;2023-04-25T01:24:27;6.40;99.90
57390;DHT22;43217;52.694;6.214;2023-04-25T01:26:53;6.40;99.90
57390;DHT22;43217;52.694;6.214;2023-04-25T01:29:22;6.40;99.90
57390;DHT22;43217;52.694;6.214;2023-04-25T01:31:48;6.50;99.90
57390;DHT22;43217;52.694;6.214;2023-04-25T01:34:15;6.40;99.90
57390;DHT22;43217;52.694;6.214;2023-04-25T01:36:41;6.50;99.90
57390;DHT22;43217;52.694;6.214;2023-04-25T01:39:07;6.50;99.90
57390;DHT22;43217;52.694;6.214;2023-04-25T01:41:33;6.50;99.90
57390;DHT22;43217;52.694;6.214;2023-04-25T01:44:00;6.50;99.90
57390;DHT22;43217;52.694;6.214;2023-04-25T01:46:26;6.50;99.90
57390;DHT22;43217;52.694;6.214;2023-04-25T01:48:52;6.50;99.90
57390;DHT22;43217;52.694;6.214;2023-04-25T01:51:18;6.50;99.90
57390;DHT22;43217;52.694;6.214;2023-04-25T01:53:44;6.50;99.90
57390;DHT22;43217;52.694;6.214;2023-04-25T01:56:10;6.50;99.90
57390;DHT22;43217;52.694;6.214;2023-04-25T01:58:36;6.50;99.90
57390;DHT22;43217;52.694;6.214;2023-04-25T02:01:01;6.50;99.90
57390;DHT22;43217;52.694;6.214;2023-04-25T02:03:27;6.50;99.90
57390;DHT22;43217;52.694;6.214;2023-04-25T02:05:52;6.60;99.90
57390;DHT22;43217;52.694;6.214;2023-04-25T02:08:18;6.50;99.90
57390;DHT22;43217;52.694;6.214;2023-04-25T02:10:44;6.60;99.90
57390;DHT22;43217;52.694;6.214;2023-04-25T02:13:09;6.60;99.90
57390;DHT22;43217;52.694;6.214;2023-04-25T02:15:35;6.60;99.90
57390;DHT22;43217;52.694;6.214;2023-04-25T02:18:01;6.60;99.90
57390;DHT22;43217;52.694;6.214;2023-04-25T02:20:28;6.60;99.90
57390;DHT22;43217;52.694;6.214;2023-04-25T02:22:54;6.60;99.90
57390;DHT22;43217;52.694;6.214;2023-04-25T02:25:19;6.60;99.90
57390;DHT22;43217;52.694;6.214;2023-04-25T02:27:46;6.60;99.90
57390;DHT22;43217;52.694;6.214;2023-04-25T02:30:12;6.60;99.90
57390;DHT22;43217;52.694;6.214;2023-04-25T02:32:39;6.60;99.90
57390;DHT22;43217;52.694;6.214;2023-04-25T02:35:05;6.60;99.90
57390;DHT22;43217;52.694;6.214;2023-04-25T02:37:36;6.60;99.90
57390;DHT22;43217;52.694;6.214;2023-04-25T02:40:03;6.50;99.90
57390;DHT22;43217;52.694;6.214;2023-04-25T02:42:30;6.50;99.90
57390;DHT22;43217;52.694;6.214;2023-04-25T02:44:56;6.50;99.90
57390;DHT22;43217;52.694;6.214;2023-04-25T02:47:21;6.50;99.90
57390;DHT22;43217;52.694;6.214;2023-04-25T02:49:47;6.50;99.90
57390;DHT22;43217;52.694;6.214;2023-04-25T02:52:13;6.50;99.90
57390;DHT22;43217;52.694;6.214;2023-04-25T02:54:40;6.50;99.90
57390;DHT22;43217;52.694;6.214;2023-04-25T02:57:06;6.50;99.90
57390;DHT22;43217;52.694;6.214;2023-04-25T02:59:31;6.50;99.90
57390;DHT22;43217;52.694;6.214;2023-04-25T03:01:57;6.50;99.90
57390;DHT22;43217;52.694;6.214;2023-04-25T03:04:22;6.50;99.90
57390;DHT22;43217;52.694;6.214;2023-04-25T03:06:50;6.50;99.90
57390;DHT22;43217;52.694;6.214;2023-04-25T03:09:15;6.50;99.90
57390;DHT22;43217;52.694;6.214;2023-04-25T03:11:41;6.50;99.90
57390;DHT22;43217;52.694;6.214;2023-04-25T03:14:07;6.40;99.90
57390;DHT22;43217;52.694;6.214;2023-04-25T03:16:33;6.40;99.90
57390;DHT22;43217;52.694;6.214;2023-04-25T03:18:59;6.40;99.90
57390;DHT22;43217;52.694;6.214;2023-04-25T03:21:24;6.40;99.90
57390;DHT22;43217;52.694;6.214;2023-04-25T03:23:50;6.40;99.90
57390;DHT22;43217;52.694;6.214;2023-04-25T03:26:16;6.40;99.90
57390;DHT22;43217;52.694;6.214;2023-04-25T03:28:42;6.40;99.90
57390;DHT22;43217;52.694;6.214;2023-04-25T03:31:07;6.40;99.90
57390;DHT22;43217;52.694;6.214;2023-04-25T03:33:33;6.40;99.90
57390;DHT22;43217;52.694;6.214;2023-04-25T03:35:58;6.40;99.90
57390;DHT22;43217;52.694;6.214;2023-04-25T03:38:24;6.30;99.90
57390;DHT22;43217;52.694;6.214;2023-04-25T03:40:51;6.30;99.90
57390;DHT22;43217;52.694;6.214;2023-04-25T03:43:16;6.30;99.90
57390;DHT22;43217;52.694;6.214;2023-04-25T03:45:42;6.30;99.90
57390;DHT22;43217;52.694;6.214;2023-04-25T03:48:08;6.30;99.90
57390;DHT22;43217;52.694;6.214;2023-04-25T03:50:33;6.30;99.90
57390;DHT22;43217;52.694;6.214;2023-04-25T03:52:59;6.30;99.90
57390;DHT22;43217;52.694;6.214;2023-04-25T03:55:25;6.30;99.90
57390;DHT22;43217;52.694;6.214;2023-04-25T03:57:50;6.30;99.90
57390;DHT22;43217;52.694;6.214;2023-04-25T04:00:16;6.30;99.90
57390;DHT22;43217;52.694;6.214;2023-04-25T04:02:42;6.20;99.90
57390;DHT22;43217;52.694;6.214;2023-04-25T04:05:07;6.20;99.90
57390;DHT22;43217;52.694;6.214;2023-04-25T04:07:33;6.20;99.90
57390;DHT22;43217;52.694;6.214;2023-04-25T04:10:02;6.20;99.90
57390;DHT22;43217;52.694;6.214;2023-04-25T04:12:27;6.20;99.90
57390;DHT22;43217;52.694;6.214;2023-04-25T04:14:53;6.10;99.90
57390;DHT22;43217;52.694;6.214;2023-04-25T04:17:18;6.10;99.90
57390;DHT22;43217;52.694;6.214;2023-04-25T04:19:44;6.10;99.90
57390;DHT22;43217;52.694;6.214;2023-04-25T04:22:10;6.10;99.90
57390;DHT22;43217;52.694;6.214;2023-04-25T04:24:36;6.10;99.90
57390;DHT22;43217;52.694;6.214;2023-04-25T04:27:01;6.10;99.90
57390;DHT22;43217;52.694;6.214;2023-04-25T04:29:28;6.10;99.90
57390;DHT22;43217;52.694;6.214;2023-04-25T04:31:53;6.10;99.90
57390;DHT22;43217;52.694;6.214;2023-04-25T04:34:19;6.10;99.90
57390;DHT22;43217;52.694;6.214;2023-04-25T04:36:45;6.10;99.90
57390;DHT22;43217;52.694;6.214;2023-04-25T04:39:12;6.10;99.90
57390;DHT22;43217;52.694;6.214;2023-04-25T04:41:38;6.10;99.90
57390;DHT22;43217;52.694;6.214;2023-04-25T04:44:05;6.10;99.90
57390;DHT22;43217;52.694;6.214;2023-04-25T04:46:33;6.10;99.90
57390;DHT22;43217;52.694;6.214;2023-04-25T04:49:04;6.10;99.90
57390;DHT22;43217;52.694;6.214;2023-04-25T04:51:30;6.10;99.90
57390;DHT22;43217;52.694;6.214;2023-04-25T04:53:56;6.10;99.90
57390;DHT22;43217;52.694;6.214;2023-04-25T04:56:24;6.10;99.90
57390;DHT22;43217;52.694;6.214;2023-04-25T04:58:51;6.10;99.90
57390;DHT22;43217;52.694;6.214;2023-04-25T05:01:17;6.10;99.90
57390;DHT22;43217;52.694;6.214;2023-04-25T05:03:43;6.10;99.90
57390;DHT22;43217;52.694;6.214;2023-04-25T05:06:09;6.10;99.90
57390;DHT22;43217;52.694;6.214;2023-04-25T05:08:35;6.20;99.90
57390;DHT22;43217;52.694;6.214;2023-04-25T05:11:01;6.20;99.90
57390;DHT22;43217;52.694;6.214;2023-04-25T05:13:27;6.20;99.90
57390;DHT22;43217;52.694;6.214;2023-04-25T05:15:52;6.30;99.90
57390;DHT22;43217;52.694;6.214;2023-04-25T05:18:18;6.30;99.90
57390;DHT22;43217;52.694;6.214;2023-04-25T05:20:44;6.30;99.90
57390;DHT22;43217;52.694;6.214;2023-04-25T05:23:09;6.30;99.90
57390;DHT22;43217;52.694;6.214;2023-04-25T05:25:35;6.30;99.90
57390;DHT22;43217;52.694;6.214;2023-04-25T05:28:03;6.30;99.90
57390;DHT22;43217;52.694;6.214;2023-04-25T05:30:28;6.30;99.90
57390;DHT22;43217;52.694;6.214;2023-04-25T05:32:54;6.60;99.90
57390;DHT22;43217;52.694;6.214;2023-04-25T05:35:20;7.20;99.90
57390;DHT22;43217;52.694;6.214;2023-04-25T05:37:45;7.80;99.90
57390;DHT22;43217;52.694;6.214;2023-04-25T05:40:11;8.40;99.90
57390;DHT22;43217;52.694;6.214;2023-04-25T05:42:37;8.90;99.90
57390;DHT22;43217;52.694;6.214;2023-04-25T05:45:02;9.20;99.90
57390;DHT22;43217;52.694;6.214;2023-04-25T05:47:28;9.30;99.90
57390;DHT22;43217;52.694;6.214;2023-04-25T05:49:53;9.40;99.90
57390;DHT22;43217;52.694;6.214;2023-04-25T05:52:19;9.30;99.90
57390;DHT22;43217;52.694;6.214;2023-04-25T05:54:45;9.00;99.90
57390;DHT22;43217;52.694;6.214;2023-04-25T05:57:24;8.60;99.90
57390;DHT22;43217;52.694;6.214;2023-04-25T05:59:51;8.30;99.90
57390;DHT22;43217;52.694;6.214;2023-04-25T06:02:17;8.00;99.90
57390;DHT22;43217;52.694;6.214;2023-04-25T06:04:43;7.90;99.90
57390;DHT22;43217;52.694;6.214;2023-04-25T06:07:11;7.70;99.90
57390;DHT22;43217;52.694;6.214;2023-04-25T06:09:37;7.60;99.90
57390;DHT22;43217;52.694;6.214;2023-04-25T06:12:05;7.60;99.90
57390;DHT22;43217;52.694;6.214;2023-04-25T06:14:30;7.60;99.90
57390;DHT22;43217;52.694;6.214;2023-04-25T06:16:56;7.70;99.90
57390;DHT22;43217;52.694;6.214;2023-04-25T06:19:22;7.80;99.90
57390;DHT22;43217;52.694;6.214;2023-04-25T06:21:47;7.80;99.90
57390;DHT22;43217;52.694;6.214;2023-04-25T06:24:13;7.90;99.90
57390;DHT22;43217;52.694;6.214;2023-04-25T06:26:39;7.90;99.90
57390;DHT22;43217;52.694;6.214;2023-04-25T06:29:04;7.90;99.90
57390;DHT22;43217;52.694;6.214;2023-04-25T06:31:30;7.80;99.90
57390;DHT22;43217;52.694;6.214;2023-04-25T06:33:58;8.30;99.90
57390;DHT22;43217;52.694;6.214;2023-04-25T06:36:23;8.50;99.90
57390;DHT22;43217;52.694;6.214;2023-04-25T06:38:53;9.00;99.90
57390;DHT22;43217;52.694;6.214;2023-04-25T06:41:20;10.10;99.90
57390;DHT22;43217;52.694;6.214;2023-04-25T06:43:46;11.10;99.90
57390;DHT22;43217;52.694;6.214;2023-04-25T06:46:12;11.90;99.90
57390;DHT22;43217;52.694;6.214;2023-04-25T06:48:37;12.60;99.90
57390;DHT22;43217;52.694;6.214;2023-04-25T06:51:03;13.40;99.90
57390;DHT22;43217;52.694;6.214;2023-04-25T06:53:29;13.50;99.90
57390;DHT22;43217;52.694;6.214;2023-04-25T06:55:54;13.30;99.90
57390;DHT22;43217;52.694;6.214;2023-04-25T06:58:20;12.90;99.90
57390;DHT22;43217;52.694;6.214;2023-04-25T07:00:46;12.40;99.90
57390;DHT22;43217;52.694;6.214;2023-04-25T07:03:11;12.00;99.90
57390;DHT22;43217;52.694;6.214;2023-04-25T07:05:37;11.70;99.90
57390;DHT22;43217;52.694;6.214;2023-04-25T07:08:03;11.40;99.90
57390;DHT22;43217;52.694;6.214;2023-04-25T07:10:28;11.10;99.90
57390;DHT22;43217;52.694;6.214;2023-04-25T07:12:54;10.90;99.90
57390;DHT22;43217;52.694;6.214;2023-04-25T07:15:20;10.70;99.90
57390;DHT22;43217;52.694;6.214;2023-04-25T07:17:45;10.50;99.90
57390;DHT22;43217;52.694;6.214;2023-04-25T07:20:11;10.50;99.90
57390;DHT22;43217;52.694;6.214;2023-04-25T07:22:37;10.40;99.90
57390;DHT22;43217;52.694;6.214;2023-04-25T07:25:03;10.40;99.90
57390;DHT22;43217;52.694;6.214;2023-04-25T07:27:30;10.40;99.90
57390;DHT22;43217;52.694;6.214;2023-04-25T07:29:56;10.50;99.90
57390;DHT22;43217;52.694;6.214;2023-04-25T07:32:21;10.50;99.90
57390;DHT22;43217;52.694;6.214;2023-04-25T07:34:47;10.70;99.90
57390;DHT22;43217;52.694;6.214;2023-04-25T07:37:13;10.90;99.90
57390;DHT22;43217;52.694;6.214;2023-04-25T07:39:40;10.90;99.90
57390;DHT22;43217;52.694;6.214;2023-04-25T07:42:05;11.00;99.90
57390;DHT22;43217;52.694;6.214;2023-04-25T07:44:33;12.00;99.90
57390;DHT22;43217;52.694;6.214;2023-04-25T07:47:04;13.20;99.90
57390;DHT22;43217;52.694;6.214;2023-04-25T07:49:32;14.10;99.90
57390;DHT22;43217;52.694;6.214;2023-04-25T07:51:59;14.90;99.90
57390;DHT22;43217;52.694;6.214;2023-04-25T07:54:24;15.60;98.30
57390;DHT22;43217;52.694;6.214;2023-04-25T07:56:50;16.10;94.60
57390;DHT22;43217;52.694;6.214;2023-04-25T07:59:16;16.70;91.40
57390;DHT22;43217;52.694;6.214;2023-04-25T08:01:41;17.50;88.40
57390;DHT22;43217;52.694;6.214;2023-04-25T08:04:07;17.90;83.80
57390;DHT22;43217;52.694;6.214;2023-04-25T08:06:33;18.00;79.40
57390;DHT22;43217;52.694;6.214;2023-04-25T08:08:58;18.10;75.30
57390;DHT22;43217;52.694;6.214;2023-04-25T08:11:24;17.60;74.90
57390;DHT22;43217;52.694;6.214;2023-04-25T08:13:50;16.40;74.60
57390;DHT22;43217;52.694;6.214;2023-04-25T08:16:16;14.90;76.20
57390;DHT22;43217;52.694;6.214;2023-04-25T08:18:41;13.30;79.80
57390;DHT22;43217;52.694;6.214;2023-04-25T08:21:07;12.30;85.40
57390;DHT22;43217;52.694;6.214;2023-04-25T08:23:34;11.50;91.10
57390;DHT22;43217;52.694;6.214;2023-04-25T08:26:00;11.00;94.00
57390;DHT22;43217;52.694;6.214;2023-04-25T08:28:25;10.50;96.30
57390;DHT22;43217;52.694;6.214;2023-04-25T08:30:51;10.40;99.50
57390;DHT22;43217;52.694;6.214;2023-04-25T08:33:16;10.30;99.90
57390;DHT22;43217;52.694;6.214;2023-04-25T08:35:43;10.30;99.90
57390;DHT22;43217;52.694;6.214;2023-04-25T08:38:09;10.30;99.90
57390;DHT22;43217;52.694;6.214;2023-04-25T08:40:37;10.40;99.90
57390;DHT22;43217;52.694;6.214;2023-04-25T08:43:04;10.60;99.90
57390;DHT22;43217;52.694;6.214;2023-04-25T08:45:32;10.70;99.70
57390;DHT22;43217;52.694;6.214;2023-04-25T08:47:58;11.00;98.90
57390;DHT22;43217;52.694;6.214;2023-04-25T08:50:24;11.60;99.60
57390;DHT22;43217;52.694;6.214;2023-04-25T08:52:53;12.80;99.40
57390;DHT22;43217;52.694;6.214;2023-04-25T08:55:21;14.00;99.00
57390;DHT22;43217;52.694;6.214;2023-04-25T08:57:47;15.00;95.40
57390;DHT22;43217;52.694;6.214;2023-04-25T09:00:13;15.40;90.10
57390;DHT22;43217;52.694;6.214;2023-04-25T09:02:40;15.30;87.40
57390;DHT22;43217;52.694;6.214;2023-04-25T09:05:06;14.70;87.30
57390;DHT22;43217;52.694;6.214;2023-04-25T09:07:32;14.40;87.40
57390;DHT22;43217;52.694;6.214;2023-04-25T09:09:58;14.00;83.50
57390;DHT22;43217;52.694;6.214;2023-04-25T09:12:29;13.70;83.70
57390;DHT22;43217;52.694;6.214;2023-04-25T09:15:10;13.40;83.20
57390;DHT22;43217;52.694;6.214;2023-04-25T09:17:36;13.20;82.10
57390;DHT22;43217;52.694;6.214;2023-04-25T09:20:12;13.00;82.40
57390;DHT22;43217;52.694;6.214;2023-04-25T09:22:39;12.90;82.20
57390;DHT22;43217;52.694;6.214;2023-04-25T09:25:10;13.10;83.80
57390;DHT22;43217;52.694;6.214;2023-04-25T09:27:36;13.50;84.60
57390;DHT22;43217;52.694;6.214;2023-04-25T09:30:02;13.60;85.20
57390;DHT22;43217;52.694;6.214;2023-04-25T09:32:28;13.50;80.20
57390;DHT22;43217;52.694;6.214;2023-04-25T09:34:56;13.20;81.90
57390;DHT22;43217;52.694;6.214;2023-04-25T09:37:24;13.20;84.50
57390;DHT22;43217;52.694;6.214;2023-04-25T09:39:53;13.10;82.90
57390;DHT22;43217;52.694;6.214;2023-04-25T09:42:25;13.10;83.70
57390;DHT22;43217;52.694;6.214;2023-04-25T09:44:55;13.00;81.60
57390;DHT22;43217;52.694;6.214;2023-04-25T09:47:23;13.00;81.60
57390;DHT22;43217;52.694;6.214;2023-04-25T09:49:50;13.00;81.70
57390;DHT22;43217;52.694;6.214;2023-04-25T09:52:18;13.00;81.60
57390;DHT22;43217;52.694;6.214;2023-04-25T09:54:45;13.10;82.20
57390;DHT22;43217;52.694;6.214;2023-04-25T09:57:13;13.10;80.70
57390;DHT22;43217;52.694;6.214;2023-04-25T09:59:43;13.10;79.90
57390;DHT22;43217;52.694;6.214;2023-04-25T10:02:11;13.00;79.80
57390;DHT22;43217;52.694;6.214;2023-04-25T10:04:38;12.90;79.50
57390;DHT22;43217;52.694;6.214;2023-04-25T10:07:06;13.00;80.80
57390;DHT22;43217;52.694;6.214;2023-04-25T10:09:32;13.10;81.00
57390;DHT22;43217;52.694;6.214;2023-04-25T10:12:02;13.00;77.70
57390;DHT22;43217;52.694;6.214;2023-04-25T10:14:31;13.10;78.80
57390;DHT22;43217;52.694;6.214;2023-04-25T10:17:01;13.20;78.50
57390;DHT22;43217;52.694;6.214;2023-04-25T10:19:27;13.40;78.10
57390;DHT22;43217;52.694;6.214;2023-04-25T10:24:23;13.20;77.30
57390;DHT22;43217;52.694;6.214;2023-04-25T10:26:50;12.90;79.50
57390;DHT22;43217;52.694;6.214;2023-04-25T10:29:26;12.50;84.70
57390;DHT22;43217;52.694;6.214;2023-04-25T10:31:52;12.20;86.90
57390;DHT22;43217;52.694;6.214;2023-04-25T10:34:19;11.80;89.70
57390;DHT22;43217;52.694;6.214;2023-04-25T10:36:52;11.40;91.20
57390;DHT22;43217;52.694;6.214;2023-04-25T10:39:23;11.20;92.50
57390;DHT22;43217;52.694;6.214;2023-04-25T10:41:57;11.00;93.20
57390;DHT22;43217;52.694;6.214;2023-04-25T10:44:26;10.90;93.80
57390;DHT22;43217;52.694;6.214;2023-04-25T10:46:55;11.00;95.20
57390;DHT22;43217;52.694;6.214;2023-04-25T10:49:57;11.10;96.00
57390;DHT22;43217;52.694;6.214;2023-04-25T10:52:29;11.20;94.70
57390;DHT22;43217;52.694;6.214;2023-04-25T10:54:58;11.20;95.50
57390;DHT22;43217;52.694;6.214;2023-04-25T10:57:53;11.30;95.10
57390;DHT22;43217;52.694;6.214;2023-04-25T11:00:20;11.40;92.40
57390;DHT22;43217;52.694;6.214;2023-04-25T11:02:51;11.40;92.00
57390;DHT22;43217;52.694;6.214;2023-04-25T11:05:22;11.50;91.60
57390;DHT22;43217;52.694;6.214;2023-04-25T11:07:53;11.40;91.60
57390;DHT22;43217;52.694;6.214;2023-04-25T11:10:28;11.60;91.40
57390;DHT22;43217;52.694;6.214;2023-04-25T11:12:54;11.80;91.60
57390;DHT22;43217;52.694;6.214;2023-04-25T11:15:20;11.90;91.70
57390;DHT22;43217;52.694;6.214;2023-04-25T11:17:46;11.90;89.20
57390;DHT22;43217;52.694;6.214;2023-04-25T11:20:13;12.00;90.00
57390;DHT22;43217;52.694;6.214;2023-04-25T11:22:39;12.00;89.90
57390;DHT22;43217;52.694;6.214;2023-04-25T11:25:09;12.00;90.30
57390;DHT22;43217;52.694;6.214;2023-04-25T11:27:57;12.00;90.50
57390;DHT22;43217;52.694;6.214;2023-04-25T11:30:24;12.20;91.40
57390;DHT22;43217;52.694;6.214;2023-04-25T11:32:50;12.40;91.30
57390;DHT22;43217;52.694;6.214;2023-04-25T11:35:19;12.60;90.40
57390;DHT22;43217;52.694;6.214;2023-04-25T11:37:46;12.70;90.00
57390;DHT22;43217;52.694;6.214;2023-04-25T11:40:12;12.80;89.80
57390;DHT22;43217;52.694;6.214;2023-04-25T11:42:39;12.90;88.70
57390;DHT22;43217;52.694;6.214;2023-04-25T11:45:08;12.90;88.90
57390;DHT22;43217;52.694;6.214;2023-04-25T11:47:37;13.00;89.20
57390;DHT22;43217;52.694;6.214;2023-04-25T11:50:05;12.90;86.30
57390;DHT22;43217;52.694;6.214;2023-04-25T11:52:44;12.80;83.90
57390;DHT22;43217;52.694;6.214;2023-04-25T11:55:14;12.80;84.10
57390;DHT22;43217;52.694;6.214;2023-04-25T11:57:41;12.90;82.90
57390;DHT22;43217;52.694;6.214;2023-04-25T12:00:17;12.90;81.10
57390;DHT22;43217;52.694;6.214;2023-04-25T12:02:45;12.60;84.00
57390;DHT22;43217;52.694;6.214;2023-04-25T12:05:11;12.20;90.00
57390;DHT22;43217;52.694;6.214;2023-04-25T12:07:37;11.80;95.40
57390;DHT22;43217;52.694;6.214;2023-04-25T12:10:11;11.50;97.90
57390;DHT22;43217;52.694;6.214;2023-04-25T12:12:38;11.30;99.90
57390;DHT22;43217;52.694;6.214;2023-04-25T12:15:17;11.20;99.90
57390;DHT22;43217;52.694;6.214;2023-04-25T12:17:49;11.00;99.90
57390;DHT22;43217;52.694;6.214;2023-04-25T12:20:20;11.10;99.90
57390;DHT22;43217;52.694;6.214;2023-04-25T12:22:49;11.20;99.90
57390;DHT22;43217;52.694;6.214;2023-04-25T12:25:40;11.30;99.90
57390;DHT22;43217;52.694;6.214;2023-04-25T12:28:24;11.50;99.80
57390;DHT22;43217;52.694;6.214;2023-04-25T12:33:18;11.30;99.60
57390;DHT22;43217;52.694;6.214;2023-04-25T12:35:44;11.10;99.90
57390;DHT22;43217;52.694;6.214;2023-04-25T12:38:10;11.10;99.90
57390;DHT22;43217;52.694;6.214;2023-04-25T12:40:36;11.10;98.70
57390;DHT22;43217;52.694;6.214;2023-04-25T12:43:01;11.00;98.40
57390;DHT22;43217;52.694;6.214;2023-04-25T12:45:27;11.00;96.60
57390;DHT22;43217;52.694;6.214;2023-04-25T12:47:52;11.10;95.60
57390;DHT22;43217;52.694;6.214;2023-04-25T12:50:18;11.30;94.90
57390;DHT22;43217;52.694;6.214;2023-04-25T12:52:43;11.30;92.90
57390;DHT22;43217;52.694;6.214;2023-04-25T12:55:09;11.40;93.00
57390;DHT22;43217;52.694;6.214;2023-04-25T12:57:35;11.40;93.40
57390;DHT22;43217;52.694;6.214;2023-04-25T13:00:00;11.40;93.30
57390;DHT22;43217;52.694;6.214;2023-04-25T13:02:26;11.50;93.40
57390;DHT22;43217;52.694;6.214;2023-04-25T13:04:51;11.50;93.50
57390;DHT22;43217;52.694;6.214;2023-04-25T13:07:17;11.60;92.60
57390;DHT22;43217;52.694;6.214;2023-04-25T13:09:42;11.70;92.70
57390;DHT22;43217;52.694;6.214;2023-04-25T13:12:08;11.60;91.70
57390;DHT22;43217;52.694;6.214;2023-04-25T13:14:34;11.60;91.80
57390;DHT22;43217;52.694;6.214;2023-04-25T13:16:59;11.60;92.20
57390;DHT22;43217;52.694;6.214;2023-04-25T13:19:25;11.30;92.70
57390;DHT22;43217;52.694;6.214;2023-04-25T13:21:51;11.10;93.80
57390;DHT22;43217;52.694;6.214;2023-04-25T13:24:17;11.00;95.90
57390;DHT22;43217;52.694;6.214;2023-04-25T13:26:43;11.00;95.70
57390;DHT22;43217;52.694;6.214;2023-04-25T13:29:09;11.10;94.70
57390;DHT22;43217;52.694;6.214;2023-04-25T13:31:34;11.20;94.70
57390;DHT22;43217;52.694;6.214;2023-04-25T13:34:00;11.20;94.30
57390;DHT22;43217;52.694;6.214;2023-04-25T13:36:26;11.20;93.50
57390;DHT22;43217;52.694;6.214;2023-04-25T13:38:51;11.00;93.80
57390;DHT22;43217;52.694;6.214;2023-04-25T13:41:17;11.00;95.10
57390;DHT22;43217;52.694;6.214;2023-04-25T13:43:45;11.10;94.80
57390;DHT22;43217;52.694;6.214;2023-04-25T13:46:12;11.40;94.00
57390;DHT22;43217;52.694;6.214;2023-04-25T13:48:39;11.50;92.80
57390;DHT22;43217;52.694;6.214;2023-04-25T13:51:04;11.60;91.20
57390;DHT22;43217;52.694;6.214;2023-04-25T13:53:30;11.60;90.80
57390;DHT22;43217;52.694;6.214;2023-04-25T13:55:56;11.50;90.90
57390;DHT22;43217;52.694;6.214;2023-04-25T13:58:22;11.40;91.70
57390;DHT22;43217;52.694;6.214;2023-04-25T14:00:47;11.40;92.20
57390;DHT22;43217;52.694;6.214;2023-04-25T14:03:13;11.40;92.50
57390;DHT22;43217;52.694;6.214;2023-04-25T14:05:39;11.40;92.60
57390;DHT22;43217;52.694;6.214;2023-04-25T14:08:09;11.40;91.80
57390;DHT22;43217;52.694;6.214;2023-04-25T14:10:35;11.30;89.70
57390;DHT22;43217;52.694;6.214;2023-04-25T14:13:02;11.30;90.20
57390;DHT22;43217;52.694;6.214;2023-04-25T14:15:29;11.20;91.30
57390;DHT22;43217;52.694;6.214;2023-04-25T14:17:54;11.00;92.00
57390;DHT22;43217;52.694;6.214;2023-04-25T14:20:20;11.00;93.00
57390;DHT22;43217;52.694;6.214;2023-04-25T14:22:46;11.00;92.40
57390;DHT22;43217;52.694;6.214;2023-04-25T14:25:12;10.90;91.90
57390;DHT22;43217;52.694;6.214;2023-04-25T14:27:38;10.80;92.40
57390;DHT22;43217;52.694;6.214;2023-04-25T14:30:04;10.70;93.00
57390;DHT22;43217;52.694;6.214;2023-04-25T14:32:30;10.70;92.60
57390;DHT22;43217;52.694;6.214;2023-04-25T14:34:57;10.60;92.30
57390;DHT22;43217;52.694;6.214;2023-04-25T14:37:22;10.50;92.00
57390;DHT22;43217;52.694;6.214;2023-04-25T14:39:48;10.60;91.90
57390;DHT22;43217;52.694;6.214;2023-04-25T14:42:14;10.70;91.80
57390;DHT22;43217;52.694;6.214;2023-04-25T14:44:39;10.80;91.70
57390;DHT22;43217;52.694;6.214;2023-04-25T14:47:05;10.80;91.40
57390;DHT22;43217;52.694;6.214;2023-04-25T14:49:32;10.80;91.60
57390;DHT22;43217;52.694;6.214;2023-04-25T14:51:57;10.80;91.60
57390;DHT22;43217;52.694;6.214;2023-04-25T14:54:23;10.80;91.80
57390;DHT22;43217;52.694;6.214;2023-04-25T14:56:49;10.80;91.90
57390;DHT22;43217;52.694;6.214;2023-04-25T14:59:15;10.70;92.80
57390;DHT22;43217;52.694;6.214;2023-04-25T15:01:41;10.70;93.80
57390;DHT22;43217;52.694;6.214;2023-04-25T15:04:06;10.50;94.40
57390;DHT22;43217;52.694;6.214;2023-04-25T15:06:33;10.40;95.70
57390;DHT22;43217;52.694;6.214;2023-04-25T15:08:58;10.40;95.80
57390;DHT22;43217;52.694;6.214;2023-04-25T15:11:24;10.40;95.50
57390;DHT22;43217;52.694;6.214;2023-04-25T15:13:50;10.60;95.10
57390;DHT22;43217;52.694;6.214;2023-04-25T15:16:15;10.80;95.20
57390;DHT22;43217;52.694;6.214;2023-04-25T15:18:41;10.90;94.50
57390;DHT22;43217;52.694;6.214;2023-04-25T15:21:06;11.10;94.00
57390;DHT22;43217;52.694;6.214;2023-04-25T15:23:32;11.30;94.10
57390;DHT22;43217;52.694;6.214;2023-04-25T15:25:58;11.50;93.90
57390;DHT22;43217;52.694;6.214;2023-04-25T15:28:29;11.60;94.10
57390;DHT22;43217;52.694;6.214;2023-04-25T15:30:56;11.80;94.30
57390;DHT22;43217;52.694;6.214;2023-04-25T15:33:22;12.00;93.70
57390;DHT22;43217;52.694;6.214;2023-04-25T15:35:48;12.00;92.50
57390;DHT22;43217;52.694;6.214;2023-04-25T15:38:14;11.90;92.50
57390;DHT22;43217;52.694;6.214;2023-04-25T15:40:40;11.80;91.80